createdAt,value
2022-09-30T00:00:14.712Z,8.21
2022-09-30T00:02:41.084Z,8.13
2022-09-30T00:05:07.602Z,8.11
2022-09-30T00:07:33.955Z,8.11
2022-09-30T00:10:00.320Z,8.16
2022-09-30T00:12:27.368Z,8.15
2022-09-30T00:14:54.101Z,8.14
2022-09-30T00:17:21.038Z,8.19
2022-09-30T00:19:47.809Z,8.23
2022-09-30T00:22:14.324Z,8.20
2022-09-30T00:24:40.802Z,8.21
2022-09-30T00:27:07.224Z,8.19
2022-09-30T00:29:33.590Z,8.24
2022-09-30T00:32:00.156Z,8.26
2022-09-30T00:34:26.665Z,8.22
2022-09-30T00:36:53.855Z,8.28
2022-09-30T00:39:22.221Z,8.28
2022-09-30T00:41:52.007Z,8.20
2022-09-30T00:44:36.791Z,8.22
2022-09-30T00:47:03.212Z,8.20
2022-09-30T00:49:29.671Z,8.15
2022-09-30T00:51:57.405Z,8.19
2022-09-30T00:54:26.316Z,8.23
2022-09-30T00:56:55.533Z,8.28
2022-09-30T00:59:27.137Z,8.26
2022-09-30T01:01:54.095Z,8.27
2022-09-30T01:04:22.307Z,8.29
2022-09-30T01:06:49.423Z,8.32
2022-09-30T01:09:16.260Z,8.29
2022-09-30T01:11:42.718Z,8.28
2022-09-30T01:14:14.474Z,8.27
2022-09-30T01:16:53.114Z,8.31
2022-09-30T01:19:31.803Z,8.25
2022-09-30T01:22:09.851Z,8.21
2022-09-30T01:24:36.171Z,8.21
2022-09-30T01:27:20.808Z,8.15
2022-09-30T01:30:01.746Z,8.16
2022-09-30T01:32:31.609Z,8.09
2022-09-30T01:35:18.275Z,8.11
2022-09-30T01:37:44.616Z,8.11
2022-09-30T01:40:22.740Z,8.13
2022-09-30T01:43:15.342Z,8.12
2022-09-30T01:45:46.930Z,8.04
2022-09-30T01:48:16.092Z,8.08
2022-09-30T01:50:42.423Z,8.10
2022-09-30T01:53:27.568Z,8.10
2022-09-30T01:55:57.797Z,8.05
2022-09-30T01:58:45.824Z,8.08
2022-09-30T02:01:17.501Z,8.07
2022-09-30T02:03:48.076Z,8.11
2022-09-30T02:06:18.445Z,8.10
2022-09-30T02:08:51.927Z,8.16
2022-09-30T02:11:23.997Z,8.15
2022-09-30T02:14:05.843Z,8.18
2022-09-30T02:16:46.030Z,8.13
2022-09-30T02:19:26.881Z,8.05
2022-09-30T02:21:57.383Z,8.13
2022-09-30T02:24:26.605Z,8.05
2022-09-30T02:26:56.282Z,7.97
2022-09-30T02:29:25.931Z,7.94
2022-09-30T02:31:56.018Z,7.93
2022-09-30T02:34:25.375Z,7.94
2022-09-30T02:36:57.185Z,7.89
2022-09-30T02:39:40.957Z,7.90
2022-09-30T02:42:11.551Z,7.96
2022-09-30T02:44:38.625Z,7.95
2022-09-30T02:47:08.031Z,8.02
2022-09-30T02:49:46.758Z,8.02
2022-09-30T02:52:13.141Z,8.01
2022-09-30T02:54:43.373Z,7.95
2022-09-30T02:57:18.754Z,8.04
2022-09-30T02:59:51.198Z,8.02
2022-09-30T03:02:18.071Z,8.01
2022-09-30T03:04:46.319Z,8.00
2022-09-30T03:07:12.959Z,8.00
2022-09-30T03:09:39.462Z,8.00
2022-09-30T03:12:19.624Z,7.99
2022-09-30T03:14:48.889Z,8.02
2022-09-30T03:17:26.902Z,7.99
2022-09-30T03:20:09.285Z,8.01
2022-09-30T03:22:38.726Z,8.02
2022-09-30T03:25:11.252Z,8.00
2022-09-30T03:27:42.673Z,7.98
2022-09-30T03:30:11.446Z,7.97
2022-09-30T03:32:37.765Z,7.95
2022-09-30T03:35:14.047Z,7.95
2022-09-30T03:37:52.043Z,7.97
2022-09-30T03:40:21.638Z,7.95
2022-09-30T03:42:53.953Z,7.97
2022-09-30T03:45:41.648Z,8.06
2022-09-30T03:48:10.061Z,8.03
2022-09-30T03:50:37.993Z,8.08
2022-09-30T03:53:09.220Z,8.05
2022-09-30T03:55:43.868Z,8.05
2022-09-30T03:58:10.187Z,8.05
2022-09-30T04:00:37.161Z,7.96
2022-09-30T04:03:03.626Z,7.94
2022-09-30T04:05:29.978Z,7.92
2022-09-30T04:07:56.345Z,7.94
2022-09-30T04:10:22.714Z,7.93
2022-09-30T04:12:49.145Z,7.93
2022-09-30T04:15:15.470Z,7.94
2022-09-30T04:17:41.839Z,7.96
2022-09-30T04:20:08.381Z,7.96
2022-09-30T04:22:34.733Z,7.97
2022-09-30T04:25:01.072Z,7.98
2022-09-30T04:27:27.441Z,8.00
2022-09-30T04:29:53.787Z,7.97
2022-09-30T04:32:21.950Z,7.97
2022-09-30T04:34:48.362Z,7.99
2022-09-30T04:37:15.707Z,7.98
2022-09-30T04:39:42.053Z,7.94
2022-09-30T04:42:08.464Z,8.00
2022-09-30T04:44:35.330Z,7.99
2022-09-30T04:47:01.773Z,8.04
2022-09-30T04:49:28.154Z,7.97
2022-09-30T04:51:54.643Z,7.98
2022-09-30T04:54:21.005Z,7.94
2022-09-30T04:56:47.370Z,8.02
2022-09-30T04:59:13.955Z,8.02
2022-09-30T05:01:42.475Z,8.04
2022-09-30T05:04:09.545Z,8.07
2022-09-30T05:06:36.321Z,8.10
2022-09-30T05:09:02.717Z,8.10
2022-09-30T05:11:29.618Z,8.15
2022-09-30T05:13:56.011Z,8.12
2022-09-30T05:16:22.413Z,8.12
2022-09-30T05:18:49.527Z,8.16
2022-09-30T05:21:17.618Z,8.13
2022-09-30T05:23:43.973Z,8.20
2022-09-30T05:26:12.428Z,8.23
2022-09-30T05:28:39.573Z,8.28
2022-09-30T05:31:06.555Z,8.29
2022-09-30T05:33:34.073Z,8.31
2022-09-30T05:36:01.671Z,8.39
2022-09-30T05:38:28.109Z,8.43
2022-09-30T05:40:54.635Z,8.39
2022-09-30T05:43:21.101Z,8.41
2022-09-30T05:45:56.789Z,8.93
2022-09-30T05:48:24.819Z,8.69
2022-09-30T05:50:55.316Z,8.63
2022-09-30T05:53:21.680Z,9.29
2022-09-30T05:55:48.581Z,9.88
2022-09-30T05:58:15.322Z,9.78
2022-09-30T06:00:42.584Z,9.52
2022-09-30T06:03:09.063Z,9.45
2022-09-30T06:05:35.450Z,9.55
2022-09-30T06:08:02.149Z,9.68
2022-09-30T06:10:28.684Z,9.72
2022-09-30T06:12:55.123Z,9.66
2022-09-30T06:15:21.581Z,9.58
2022-09-30T06:17:54.453Z,9.60
2022-09-30T06:20:22.598Z,9.90
2022-09-30T06:22:48.965Z,10.13
2022-09-30T06:25:15.406Z,10.20
2022-09-30T06:27:44.482Z,10.24
2022-09-30T06:30:11.062Z,10.43
2022-09-30T06:32:37.431Z,10.56
2022-09-30T06:35:04.159Z,10.78
2022-09-30T06:37:30.589Z,11.32
2022-09-30T06:39:56.960Z,11.54
2022-09-30T06:42:24.443Z,11.77
2022-09-30T06:44:53.462Z,11.98
2022-09-30T06:47:25.179Z,12.05
2022-09-30T06:49:53.047Z,12.06
2022-09-30T06:52:20.095Z,11.82
2022-09-30T06:54:47.094Z,12.30
2022-09-30T06:57:13.662Z,12.26
2022-09-30T06:59:40.042Z,12.27
2022-09-30T07:02:06.547Z,12.47
2022-09-30T07:04:32.989Z,12.32
2022-09-30T07:06:59.335Z,12.25
2022-09-30T07:09:25.852Z,12.11
2022-09-30T07:11:52.377Z,11.91
2022-09-30T07:14:18.793Z,11.72
2022-09-30T07:16:45.353Z,11.75
2022-09-30T07:19:12.094Z,11.59
2022-09-30T07:21:38.421Z,11.59
2022-09-30T07:24:05.615Z,11.64
2022-09-30T07:26:32.465Z,12.13
2022-09-30T07:29:00.206Z,12.32
2022-09-30T07:31:32.926Z,12.68
2022-09-30T07:34:00.386Z,12.95
2022-09-30T07:36:33.787Z,13.33
2022-09-30T07:39:05.364Z,13.52
2022-09-30T07:41:31.892Z,13.59
2022-09-30T07:44:01.472Z,13.75
2022-09-30T07:46:31.359Z,14.10
2022-09-30T07:49:01.487Z,14.18
2022-09-30T07:51:31.087Z,14.36
2022-09-30T07:53:59.448Z,15.28
2022-09-30T07:56:25.984Z,15.71
2022-09-30T07:58:56.430Z,16.17
2022-09-30T08:01:23.137Z,16.67
2022-09-30T08:03:52.709Z,16.62
2022-09-30T08:06:19.628Z,16.86
2022-09-30T08:08:47.508Z,16.87
2022-09-30T08:11:16.999Z,16.90
2022-09-30T08:13:43.408Z,16.64
2022-09-30T08:16:09.802Z,16.74
2022-09-30T08:18:36.387Z,17.12
2022-09-30T08:21:06.498Z,17.99
2022-09-30T08:23:33.819Z,21.66
2022-09-30T08:26:01.173Z,23.86
2022-09-30T08:28:27.703Z,25.11
2022-09-30T08:30:54.201Z,24.89
2022-09-30T08:33:20.665Z,23.39
2022-09-30T08:35:47.193Z,22.28
2022-09-30T08:38:13.661Z,19.83
2022-09-30T08:40:55.530Z,18.68
2022-09-30T08:43:42.429Z,18.45
2022-09-30T08:46:30.422Z,17.92
2022-09-30T08:49:24.165Z,16.56
2022-09-30T08:51:52.474Z,16.79
2022-09-30T08:54:23.099Z,19.90
2022-09-30T08:56:49.890Z,22.95
2022-09-30T08:59:32.853Z,22.01
2022-09-30T09:02:30.323Z,21.49
2022-09-30T09:05:05.475Z,19.43
2022-09-30T09:07:37.451Z,17.60
2022-09-30T09:10:44.019Z,17.11
2022-09-30T09:13:25.825Z,16.39
2022-09-30T09:16:21.034Z,15.67
2022-09-30T09:18:54.879Z,15.41
2022-09-30T09:21:42.209Z,15.31
2022-09-30T09:24:22.376Z,16.57
2022-09-30T09:26:49.902Z,19.59
2022-09-30T09:29:34.715Z,21.00
2022-09-30T09:32:03.492Z,20.87
2022-09-30T09:34:30.722Z,21.83
2022-09-30T09:37:00.034Z,21.32
2022-09-30T09:39:49.541Z,22.45
2022-09-30T09:42:42.416Z,24.33
2022-09-30T09:45:34.827Z,23.13
2022-09-30T09:48:01.608Z,23.73
2022-09-30T09:50:57.496Z,24.82
2022-09-30T09:53:42.209Z,26.00
2022-09-30T09:56:24.154Z,27.54
2022-09-30T09:59:09.684Z,24.48
2022-09-30T10:01:39.868Z,24.40
2022-09-30T10:04:10.404Z,23.81
2022-09-30T10:07:00.600Z,24.89
2022-09-30T10:09:33.450Z,23.96
2022-09-30T10:12:05.928Z,22.26
2022-09-30T10:14:46.134Z,22.13
2022-09-30T10:17:19.983Z,24.71
2022-09-30T10:19:54.886Z,26.03
2022-09-30T10:22:28.835Z,25.84
2022-09-30T10:25:14.095Z,24.78
2022-09-30T10:27:59.911Z,24.84
2022-09-30T10:30:38.857Z,22.55
2022-09-30T10:33:23.858Z,21.01
2022-09-30T10:36:00.276Z,19.96
2022-09-30T10:38:29.749Z,20.25
2022-09-30T10:40:56.939Z,21.96
2022-09-30T10:43:50.022Z,21.13
2022-09-30T10:46:27.708Z,19.84
2022-09-30T10:48:56.254Z,18.75
2022-09-30T10:51:34.043Z,17.91
2022-09-30T10:54:00.988Z,17.58
2022-09-30T10:56:34.854Z,18.23
2022-09-30T10:59:02.859Z,19.84
2022-09-30T11:01:51.510Z,19.81
2022-09-30T11:04:28.911Z,21.27
2022-09-30T11:07:15.542Z,20.61
2022-09-30T11:09:52.142Z,19.92
2022-09-30T11:12:24.628Z,17.96
2022-09-30T11:14:57.806Z,18.24
2022-09-30T11:17:59.243Z,16.39
2022-09-30T11:20:38.907Z,16.18
2022-09-30T11:23:05.294Z,16.18
2022-09-30T11:25:34.726Z,16.07
2022-09-30T11:28:26.203Z,15.65
2022-09-30T11:31:08.214Z,16.11
2022-09-30T11:33:41.298Z,15.71
2022-09-30T11:36:07.649Z,15.68
2022-09-30T11:38:42.174Z,15.44
2022-09-30T11:41:34.978Z,15.53
2022-09-30T11:44:01.394Z,15.51
2022-09-30T11:46:33.858Z,15.50
2022-09-30T11:49:26.734Z,14.97
2022-09-30T11:52:07.397Z,14.86
2022-09-30T11:54:45.128Z,14.95
2022-09-30T11:57:17.700Z,15.19
2022-09-30T11:59:48.517Z,15.23
2022-09-30T12:02:35.153Z,15.37
2022-09-30T12:05:07.853Z,15.48
2022-09-30T12:07:43.927Z,15.71
2022-09-30T12:10:16.458Z,15.59
2022-09-30T12:12:43.911Z,15.92
2022-09-30T12:15:15.462Z,15.56
2022-09-30T12:17:48.474Z,15.55
2022-09-30T12:20:26.682Z,15.73
2022-09-30T12:23:01.137Z,15.70
2022-09-30T12:25:40.627Z,15.21
2022-09-30T12:28:34.784Z,15.19
2022-09-30T12:31:21.220Z,15.08
2022-09-30T12:34:00.714Z,15.54
2022-09-30T12:36:45.991Z,15.53
2022-09-30T12:39:24.643Z,15.45
2022-09-30T12:42:14.327Z,15.27
2022-09-30T12:45:06.767Z,15.82
2022-09-30T12:47:36.103Z,16.32
2022-09-30T12:50:06.143Z,16.06
2022-09-30T12:52:33.913Z,16.17
2022-09-30T12:55:02.969Z,15.79
2022-09-30T12:57:34.029Z,15.45
2022-09-30T13:00:02.516Z,15.10
2022-09-30T13:02:31.841Z,14.89
2022-09-30T13:05:17.946Z,15.05
2022-09-30T13:08:02.718Z,15.11
2022-09-30T13:10:31.100Z,14.88
2022-09-30T13:13:19.213Z,14.63
2022-09-30T13:15:46.427Z,14.51
2022-09-30T13:18:28.161Z,14.35
2022-09-30T13:20:56.738Z,14.42
2022-09-30T13:23:41.613Z,14.51
2022-09-30T13:26:26.291Z,14.98
2022-09-30T13:28:53.542Z,15.52
2022-09-30T13:31:23.732Z,16.56
2022-09-30T13:34:01.986Z,17.02
2022-09-30T13:36:31.714Z,16.75
2022-09-30T13:39:21.657Z,16.53
2022-09-30T13:42:00.282Z,16.95
2022-09-30T13:44:32.730Z,16.77
2022-09-30T13:47:08.841Z,16.64
2022-09-30T13:49:35.158Z,17.39
2022-09-30T13:52:06.465Z,18.43
2022-09-30T13:54:37.672Z,18.55
2022-09-30T13:57:06.493Z,18.57
2022-09-30T14:00:01.968Z,17.36
2022-09-30T14:02:46.534Z,16.74
2022-09-30T14:06:00.640Z,17.69
2022-09-30T14:08:47.342Z,18.30
2022-09-30T14:11:35.603Z,17.33
2022-09-30T14:14:25.756Z,17.02
2022-09-30T14:16:54.959Z,17.31
2022-09-30T14:19:34.062Z,16.28
2022-09-30T14:22:06.913Z,16.38
2022-09-30T14:24:37.806Z,15.55
2022-09-30T14:27:38.086Z,15.20
2022-09-30T14:30:20.623Z,14.78
2022-09-30T14:32:55.328Z,14.86
2022-09-30T14:35:29.463Z,14.47
2022-09-30T14:38:01.181Z,14.22
2022-09-30T14:40:30.470Z,14.33
2022-09-30T14:43:04.945Z,14.48
2022-09-30T14:45:35.069Z,14.52
2022-09-30T14:48:08.331Z,14.59
2022-09-30T14:50:46.003Z,14.45
2022-09-30T14:53:34.219Z,14.79
2022-09-30T14:56:03.039Z,14.37
2022-09-30T14:58:31.600Z,14.38
2022-09-30T15:01:10.023Z,14.36
2022-09-30T15:03:39.883Z,14.29
2022-09-30T15:06:18.214Z,14.47
2022-09-30T15:08:44.702Z,14.36
2022-09-30T15:11:18.346Z,14.29
2022-09-30T15:13:45.332Z,14.24
2022-09-30T15:16:30.502Z,14.22
2022-09-30T15:18:58.021Z,14.18
2022-09-30T15:21:27.273Z,14.13
2022-09-30T15:24:00.741Z,14.07
2022-09-30T15:26:27.776Z,14.07
2022-09-30T15:28:54.858Z,13.97
2022-09-30T15:31:29.207Z,13.87
2022-09-30T15:34:20.452Z,13.93
2022-09-30T15:36:58.195Z,13.82
2022-09-30T15:39:47.558Z,13.74
2022-09-30T15:42:35.405Z,13.76
2022-09-30T15:45:43.338Z,13.71
2022-09-30T15:48:16.765Z,13.53
2022-09-30T15:50:44.550Z,13.41
2022-09-30T15:53:24.214Z,13.22
2022-09-30T15:55:59.951Z,13.14
2022-09-30T15:58:26.657Z,13.05
2022-09-30T16:01:09.194Z,12.91
2022-09-30T16:03:36.689Z,12.88
2022-09-30T16:06:12.327Z,12.74
2022-09-30T16:08:44.665Z,12.69
2022-09-30T16:11:21.861Z,12.56
2022-09-30T16:13:49.171Z,12.48
2022-09-30T16:16:23.991Z,12.46
2022-09-30T16:18:53.361Z,12.34
2022-09-30T16:21:44.776Z,12.21
2022-09-30T16:24:44.534Z,12.11
2022-09-30T16:27:22.787Z,12.05
2022-09-30T16:29:49.263Z,12.06
2022-09-30T16:32:15.764Z,12.00
2022-09-30T16:34:42.286Z,11.96
2022-09-30T16:37:13.635Z,11.92
2022-09-30T16:39:40.471Z,11.93
2022-09-30T16:42:12.144Z,11.89
2022-09-30T16:44:38.595Z,11.99
2022-09-30T16:47:05.116Z,11.81
2022-09-30T16:49:31.562Z,11.65
2022-09-30T16:51:58.094Z,11.45
2022-09-30T16:54:24.739Z,11.29
2022-09-30T16:56:51.248Z,11.14
2022-09-30T16:59:19.034Z,10.95
2022-09-30T17:01:45.518Z,10.95
2022-09-30T17:04:15.227Z,10.78
2022-09-30T17:06:44.132Z,10.67
2022-09-30T17:09:10.603Z,10.55
2022-09-30T17:11:38.089Z,10.31
2022-09-30T17:14:05.762Z,10.20
2022-09-30T17:16:34.250Z,10.04
2022-09-30T17:19:01.039Z,9.95
2022-09-30T17:21:27.947Z,9.83
2022-09-30T17:23:55.722Z,9.74
2022-09-30T17:26:22.636Z,9.60
2022-09-30T17:28:49.101Z,9.45
2022-09-30T17:31:15.962Z,9.32
2022-09-30T17:33:42.525Z,9.29
2022-09-30T17:36:13.119Z,9.17
2022-09-30T17:38:39.907Z,9.08
2022-09-30T17:41:25.586Z,9.08
2022-09-30T17:43:52.099Z,9.03
2022-09-30T17:46:22.531Z,9.12
2022-09-30T17:48:50.790Z,9.26
2022-09-30T17:51:17.325Z,9.36
2022-09-30T17:53:44.455Z,9.38
2022-09-30T17:56:20.650Z,9.38
2022-09-30T17:58:49.079Z,9.44
2022-09-30T18:01:18.209Z,9.40
2022-09-30T18:03:45.871Z,9.30
2022-09-30T18:06:14.452Z,9.22
2022-09-30T18:08:41.123Z,9.25
2022-09-30T18:11:07.701Z,9.23
2022-09-30T18:13:34.331Z,9.22
2022-09-30T18:16:06.108Z,9.20
2022-09-30T18:18:34.523Z,9.20
2022-09-30T18:21:01.001Z,9.23
2022-09-30T18:23:27.451Z,9.22
2022-09-30T18:25:54.973Z,9.21
2022-09-30T18:28:21.547Z,9.11
2022-09-30T18:30:48.080Z,9.04
2022-09-30T18:33:17.291Z,9.04
2022-09-30T18:35:44.219Z,8.91
2022-09-30T18:38:12.751Z,8.92
2022-09-30T18:40:43.298Z,8.87
2022-09-30T18:43:12.926Z,8.88
2022-09-30T18:45:40.284Z,8.93
2022-09-30T18:48:07.480Z,8.96
2022-09-30T18:50:34.652Z,8.92
2022-09-30T18:53:09.125Z,8.93
2022-09-30T18:55:39.768Z,8.94
2022-09-30T18:58:06.256Z,8.90
2022-09-30T19:00:32.895Z,8.90
2022-09-30T19:02:59.487Z,8.93
2022-09-30T19:05:26.441Z,9.01
2022-09-30T19:07:53.739Z,9.12
2022-09-30T19:10:20.703Z,9.11
2022-09-30T19:12:47.213Z,9.09
2022-09-30T19:15:17.905Z,9.06
2022-09-30T19:17:45.235Z,9.10
2022-09-30T19:20:12.894Z,9.05
2022-09-30T19:22:39.354Z,9.05
2022-09-30T19:25:08.145Z,9.06
2022-09-30T19:27:37.689Z,8.97
2022-09-30T19:30:06.382Z,8.95
2022-09-30T19:32:35.007Z,8.92
2022-09-30T19:35:07.146Z,8.86
2022-09-30T19:37:34.979Z,8.85
2022-09-30T19:40:14.485Z,8.94
2022-09-30T19:42:48.164Z,8.90
2022-09-30T19:45:16.554Z,8.89
2022-09-30T19:47:43.415Z,8.78
2022-09-30T19:50:10.076Z,8.71
2022-09-30T19:52:43.135Z,8.64
2022-09-30T19:55:16.945Z,8.69
2022-09-30T19:57:43.696Z,8.63
2022-09-30T20:00:12.475Z,8.61
2022-09-30T20:02:39.080Z,8.61
2022-09-30T20:05:06.436Z,8.66
2022-09-30T20:07:33.012Z,8.68
2022-09-30T20:10:00.862Z,8.69
2022-09-30T20:12:28.541Z,8.65
2022-09-30T20:15:13.847Z,8.65
2022-09-30T20:17:40.382Z,8.77
2022-09-30T20:20:25.760Z,8.81
2022-09-30T20:22:53.265Z,8.83
2022-09-30T20:25:20.226Z,8.76
2022-09-30T20:27:52.014Z,8.75
2022-09-30T20:30:19.752Z,8.71
2022-09-30T20:32:46.194Z,8.71
2022-09-30T20:35:12.983Z,8.74
2022-09-30T20:37:40.768Z,8.69
2022-09-30T20:40:09.314Z,8.65
2022-09-30T20:42:37.856Z,8.59
2022-09-30T20:45:06.192Z,8.56
2022-09-30T20:47:32.652Z,8.51
2022-09-30T20:49:59.114Z,8.38
2022-09-30T20:52:25.664Z,8.27
2022-09-30T20:54:53.084Z,8.18
2022-09-30T20:57:19.601Z,8.04
2022-09-30T20:59:47.218Z,7.92
2022-09-30T21:02:14.332Z,7.76
2022-09-30T21:04:40.911Z,7.70
2022-09-30T21:07:07.406Z,7.63
2022-09-30T21:09:36.694Z,7.63
2022-09-30T21:12:03.208Z,7.50
2022-09-30T21:14:29.667Z,7.40
2022-09-30T21:16:56.098Z,7.45
2022-09-30T21:19:22.599Z,7.46
2022-09-30T21:21:49.045Z,7.40
2022-09-30T21:24:16.387Z,7.41
2022-09-30T21:26:43.274Z,7.45
2022-09-30T21:29:09.736Z,7.46
2022-09-30T21:31:37.813Z,7.46
2022-09-30T21:34:04.647Z,7.54
2022-09-30T21:36:32.158Z,7.58
2022-09-30T21:39:04.864Z,7.54
2022-09-30T21:41:33.307Z,7.56
2022-09-30T21:44:01.367Z,7.57
2022-09-30T21:46:29.451Z,7.63
2022-09-30T21:49:07.720Z,7.62
2022-09-30T21:51:35.324Z,7.73
2022-09-30T21:54:02.860Z,7.88
2022-09-30T21:56:29.343Z,7.94
2022-09-30T21:58:56.085Z,8.02
2022-09-30T22:01:23.278Z,8.06
2022-09-30T22:03:49.859Z,7.99
2022-09-30T22:06:19.218Z,8.04
2022-09-30T22:08:45.955Z,8.08
2022-09-30T22:11:25.306Z,7.98
2022-09-30T22:13:55.515Z,7.91
2022-09-30T22:16:25.996Z,7.89
2022-09-30T22:19:00.824Z,7.79
2022-09-30T22:21:32.024Z,7.72
2022-09-30T22:24:01.564Z,7.68
2022-09-30T22:26:29.676Z,7.76
2022-09-30T22:28:58.673Z,7.77
2022-09-30T22:31:27.266Z,7.75
2022-09-30T22:34:20.689Z,7.77
2022-09-30T22:37:06.330Z,7.82
2022-09-30T22:39:33.095Z,7.91
2022-09-30T22:42:00.393Z,7.97
2022-09-30T22:44:29.453Z,7.95
2022-09-30T22:46:58.039Z,8.09
2022-09-30T22:49:25.287Z,8.09
2022-09-30T22:51:53.318Z,7.97
2022-09-30T22:54:20.588Z,8.03
2022-09-30T22:56:48.849Z,8.00
2022-09-30T22:59:15.822Z,8.00
2022-09-30T23:01:43.870Z,8.10
2022-09-30T23:04:11.370Z,8.03
2022-09-30T23:06:38.078Z,7.99
2022-09-30T23:09:05.601Z,8.08
2022-09-30T23:11:32.805Z,8.07
2022-09-30T23:13:59.552Z,8.02
2022-09-30T23:16:26.249Z,7.93
2022-09-30T23:18:52.929Z,7.97
2022-09-30T23:21:19.767Z,7.93
2022-09-30T23:23:48.289Z,7.91
2022-09-30T23:26:18.033Z,7.95
2022-09-30T23:28:45.538Z,8.03
2022-09-30T23:31:15.906Z,8.07
2022-09-30T23:33:49.011Z,8.02
2022-09-30T23:36:18.066Z,8.10
2022-09-30T23:38:44.990Z,8.10
2022-09-30T23:41:13.152Z,8.18
2022-09-30T23:43:40.091Z,8.19
2022-09-30T23:46:07.606Z,8.11
2022-09-30T23:48:36.464Z,8.09
2022-09-30T23:51:05.269Z,8.11
2022-09-30T23:53:33.299Z,8.07
2022-09-30T23:56:09.509Z,8.04
2022-09-30T23:58:36.311Z,8.01
